Impacts METAR Board
IDs:

KILE - Killeen/Skylark Fld, TX, US

Updated at: 1300 UTC 14 Dec 2019
Potential Impact None Slight Moderate High
Time 14/01Z 14/02Z 14/03Z 14/04Z 14/05Z 14/06Z 14/07Z 14/08Z 14/09Z 14/10Z 14/11Z 14/12Z 14/13Z
Temp56 51 50 50 46 48 42 42 42 41 41 41 39
Dewpt40 40 41 41 40 40 38 39 39 38 38 38 37
Altim29.85 29.86 29.87 29.88 29.89 29.88 29.88 29.88 29.88 29.87 29.88 29.89 29.88
VIS10 10 10 10 10 10 10 10 10 10 10 10 10
CIG-- -- -- -- -- -- -- -- -- -- -- -- --
CoverCLRCLRCLRCLRCLRCLRCLRCLRCLRCLRCLRCLRCLR
FltCatVFRVFRVFRVFRVFRVFRVFRVFRVFRVFRVFRVFRVFR
WX--------------------------
WDir000310320190250003103402900
WSpd0 0 0 4 3 3 3 0 0 4 3 3 0
WGst-- -- -- -- -- -- -- -- -- -- -- -- --
Raw hourly METARs
KILE 140056Z AUTO 00000KT 10SM CLR 13/04 A2985 RMK AO2 SLP105 T01330044
KILE 140156Z AUTO 00000KT 10SM CLR 11/04 A2986 RMK AO2 SLP109 T01060044
KILE 140256Z AUTO 00000KT 10SM CLR 10/05 A2987 RMK AO2 SLP110 T01000050 53006
KILE 140356Z AUTO 31004KT 10SM CLR 10/05 A2988 RMK AO2 SLP114 T01000050
KILE 140456Z AUTO 32003KT 10SM CLR 08/04 A2989 RMK AO2 SLP117 T00780044
KILE 140556Z AUTO 19003KT 10SM CLR 09/04 A2988 RMK AO2 SLP110 T00890044 10161 20072 402220033 50003
KILE 140656Z AUTO 25003KT 10SM CLR 06/03 A2988 RMK AO2 SLP112 T00560033
KILE 140756Z AUTO 00000KT 10SM CLR 06/04 A2988 RMK AO2 SLP110 T00560039
KILE 140856Z AUTO 00000KT 10SM CLR 06/04 A2988 RMK AO2 SLP111 T00560039 53001
KILE 140956Z AUTO 31004KT 10SM CLR 05/03 A2987 RMK AO2 SLP109 T00500033
KILE 141056Z AUTO 34003KT 10SM CLR 05/03 A2988 RMK AO2 SLP114 T00500033
KILE 141156Z AUTO 29003KT 10SM CLR 05/03 A2989 RMK AO2 SLP118 T00500033 10089 20039 53003
KILE 141256Z AUTO 00000KT 10SM CLR 04/03 A2988 RMK AO2 SLP115 T00390028



Page loaded:  13:35 UTC  |   05:35 AM Pacific  |   06:35 AM Mountain  |   07:35 AM Central  |   08:35 AM Eastern

 

ADVISORIES

FORECASTS

FORECASTS

OBSERVATIONS

USER TOOLS

ABOUT US